Aviano, Aviano Air Base (LIPA)

NameAviano Air Base
CityAviano
CountryItaly
ICAOLIPA
IATAAVB
Altitude125 m
CoordinatesGoogle Map
Live Air TrafficLiveATC.net
METARLIPA 181355Z 03012KT 9999 SCT045 BKN055 15/10 Q1007
2019-05-18 13:55:00 Wind: North-Northeast (30°) 6.17 m/s - Visibility: > 10000 m - Temperature: 15 °C - Dew point: 10 °C - Humidity: 72.2% - Pressure: 1007 hPa

Sorry, no flights used the airport in this database.